Time;durP1;ratioP1;P1;durP2;ratioP2;P2;SDS_P1;SDS_P2;PMS_P1;PMS_P2;Temp;Humidity;BMP_temperature;BMP_pressure;BME280_temperature;BME280_humidity;BME280_pressure;Samples;Min_cycle;Max_cycle;Signal;HPM_P1;HPM_P2
2021/04/09 00:01:29;;;;;;;28.92;12.35;;;;;;;-0.46;82.65;99853.57;4476570;79;21140;-84
2021/04/09 00:07:31;;;;;;;31.00;12.87;;;;;;;-0.49;82.73;99852.79;4477156;79;21168;-84
2021/04/09 00:13:32;;;;;;;29.97;13.00;;;;;;;-0.49;82.77;99856.83;4476516;79;21124;-85
2021/04/09 00:19:34;;;;;;;28.47;12.67;;;;;;;-0.69;82.64;99861.00;4476630;79;21629;-83
2021/04/09 00:25:35;;;;;;;26.80;13.13;;;;;;;-0.79;82.70;99858.93;4476672;79;21581;-84
2021/04/09 00:31:37;;;;;;;27.70;11.77;;;;;;;-0.78;82.71;99859.99;4477116;79;21168;-84
2021/04/09 00:37:39;;;;;;;26.90;12.07;;;;;;;-0.91;82.90;99857.92;4476793;79;21128;-84
2021/04/09 00:43:41;;;;;;;30.43;13.17;;;;;;;-0.97;82.87;99861.73;4477285;79;21140;-83
2021/04/09 00:49:42;;;;;;;26.10;13.87;;;;;;;-0.91;83.02;99859.27;4476166;78;21450;-85
2021/04/09 00:55:46;;;;;;;27.67;12.50;;;;;;;-0.88;82.79;99859.27;4477227;80;21136;-84
2021/04/09 01:01:48;;;;;;;32.30;13.37;;;;;;;-0.93;82.78;99849.89;4476756;79;21832;-84
2021/04/09 01:07:49;;;;;;;25.70;12.00;;;;;;;-1.00;82.62;99853.45;4476494;79;21160;-83
2021/04/09 01:13:51;;;;;;;26.03;13.47;;;;;;;-1.12;82.52;99856.46;4477394;79;21132;-84
2021/04/09 01:20:28;;;;;;;31.57;15.00;;;;;;;-1.21;82.54;99854.63;4505552;79;21145;-84
2021/04/09 01:27:13;;;;;;;31.03;14.63;;;;;;;-1.22;82.89;99853.03;4506407;79;21164;-84
2021/04/09 01:33:15;;;;;;;33.60;14.63;;;;;;;-1.29;82.55;99847.97;4476883;79;21124;-83
2021/04/09 01:39:30;;;;;;;24.47;12.60;;;;;;;-1.33;82.79;99843.42;4444018;79;21101;-84
2021/04/09 01:45:33;;;;;;;25.73;12.87;;;;;;;-1.32;82.94;99838.30;4514445;79;21641;-84
2021/04/09 01:51:36;;;;;;;23.60;12.60;;;;;;;-1.40;82.71;99832.17;4506774;79;21157;-83
2021/04/09 01:57:41;;;;;;;27.53;13.00;;;;;;;-1.46;82.75;99839.46;4487101;78;21207;-85
2021/04/09 02:03:46;;;;;;;25.67;11.97;;;;;;;-1.52;82.84;99840.56;4490535;78;21176;-84
2021/04/09 02:09:50;;;;;;;26.90;11.97;;;;;;;-1.61;82.62;99834.14;4486407;78;21148;-83
2021/04/09 02:15:57;;;;;;;23.43;12.03;;;;;;;-1.66;82.85;99829.60;4489187;78;21133;-84
2021/04/09 02:22:00;;;;;;;23.70;11.57;;;;;;;-1.67;82.98;99832.56;4481753;78;21145;-83
2021/04/09 02:28:01;;;;;;;26.07;13.00;;;;;;;-1.60;83.26;99835.77;4484607;78;21136;-84
2021/04/09 02:34:03;;;;;;;24.63;11.23;;;;;;;-1.57;83.12;99838.43;4485126;78;21140;-84
2021/04/09 02:40:12;;;;;;;26.37;12.00;;;;;;;-1.54;83.02;99840.56;4488486;78;21184;-83
2021/04/09 02:46:22;;;;;;;23.27;11.70;;;;;;;-1.57;82.99;99834.66;4017407;80;28499;-84
2021/04/09 02:52:29;;;;;;;26.03;12.13;;;;;;;-1.62;82.97;99825.30;4027762;86;21187;-83
2021/04/09 02:58:33;;;;;;;25.03;11.57;;;;;;;-1.62;82.88;99823.16;4007521;88;21653;-83
2021/04/09 03:04:36;;;;;;;28.00;12.77;;;;;;;-1.75;82.60;99818.36;4006990;88;21665;-83
2021/04/09 03:10:39;;;;;;;33.33;14.20;;;;;;;-1.90;82.54;99821.11;4032309;85;28997;-84
2021/04/09 03:16:56;;;;;;;26.70;13.23;;;;;;;-2.00;82.75;99814.42;4112659;85;21169;-83
2021/04/09 03:22:58;;;;;;;28.17;12.90;;;;;;;-2.07;82.83;99815.27;4116160;85;21225;-84
2021/04/09 03:29:00;;;;;;;29.90;13.30;;;;;;;-2.15;82.69;99811.80;4089124;86;21190;-83
2021/04/09 03:35:02;;;;;;;28.40;13.33;;;;;;;-2.20;83.01;99812.63;4104021;85;21632;-83
2021/04/09 03:41:03;;;;;;;34.47;14.37;;;;;;;-2.19;82.85;99812.06;4084522;86;21353;-83
2021/04/09 03:47:05;;;;;;;25.07;12.23;;;;;;;-2.22;82.80;99805.90;4101599;85;21222;-83
2021/04/09 03:53:06;;;;;;;36.07;15.60;;;;;;;-2.30;82.75;99806.48;4103241;85;21336;-84
2021/04/09 03:59:08;;;;;;;30.23;13.90;;;;;;;-2.38;82.55;99807.81;4101645;85;21348;-86
2021/04/09 04:05:11;;;;;;;34.27;15.47;;;;;;;-2.47;82.62;99807.29;4097554;85;21196;-85
2021/04/09 04:11:12;;;;;;;33.07;16.50;;;;;;;-2.52;82.72;99805.42;4087143;86;21195;-85
2021/04/09 04:17:14;;;;;;;44.77;19.57;;;;;;;-2.48;82.91;99810.53;4097451;85;21190;-84
2021/04/09 04:23:16;;;;;;;45.33;21.80;;;;;;;-2.47;82.87;99808.10;4119546;84;49099;-85
2021/04/09 04:29:17;;;;;;;38.60;16.83;;;;;;;-2.50;82.80;99812.66;3994972;88;21215;-85
2021/04/09 04:35:19;;;;;;;31.33;14.60;;;;;;;-2.52;82.85;99808.10;4038238;87;21715;-84
2021/04/09 04:41:20;;;;;;;33.87;16.27;;;;;;;-2.51;82.90;99814.28;3987694;88;21219;-85
2021/04/09 04:47:22;;;;;;;34.43;16.33;;;;;;;-2.49;83.14;99815.61;4051388;87;21804;-85
2021/04/09 04:53:23;;;;;;;36.33;18.20;;;;;;;-2.34;83.34;99822.30;3982253;87;21906;-84
2021/04/09 04:59:31;;;;;;;35.83;17.13;;;;;;;-2.20;83.22;99822.53;4033740;88;21360;-85
2021/04/09 05:05:33;;;;;;;66.37;30.07;;;;;;;-2.04;83.80;99820.91;4035030;87;21199;-85
2021/04/09 05:11:34;;;;;;;45.37;22.13;;;;;;;-1.74;83.91;99818.09;4102466;84;21493;-85
2021/04/09 05:17:36;;;;;;;47.93;18.37;;;;;;;-1.47;83.87;99820.94;4096003;86;21131;-85
2021/04/09 05:23:38;;;;;;;44.17;16.50;;;;;;;-1.18;83.79;99820.49;4103655;86;21250;-85
2021/04/09 05:29:40;;;;;;;33.20;16.67;;;;;;;-0.84;83.94;99822.14;4109034;86;21226;-86
2021/04/09 05:35:41;;;;;;;50.60;16.23;;;;;;;-0.52;83.83;99812.20;4115237;84;21632;-85
2021/04/09 05:41:43;;;;;;;37.57;15.07;;;;;;;-0.28;83.44;99804.42;4116651;84;21175;-86
2021/04/09 05:47:44;;;;;;;33.10;12.27;;;;;;;0.03;83.43;99800.88;4101884;84;21304;-86
2021/04/09 05:53:46;;;;;;;18.33;9.03;;;;;;;0.37;82.90;99802.08;4123291;85;21194;-86
2021/04/09 05:59:47;;;;;;;20.63;10.23;;;;;;;0.71;82.76;99802.69;4136702;84;21182;-87
2021/04/09 06:05:49;;;;;;;19.30;8.53;;;;;;;1.02;82.45;99798.45;4135636;85;21666;-87
2021/04/09 06:11:50;;;;;;;22.97;9.73;;;;;;;1.27;82.23;99789.97;4150222;84;21178;-86
2021/04/09 06:17:51;;;;;;;21.93;10.03;;;;;;;1.70;81.87;99796.79;4149062;84;21214;-87
2021/04/09 06:23:53;;;;;;;19.60;9.47;;;;;;;2.22;81.78;99784.72;4235156;81;50720;-87
2021/04/09 06:29:54;;;;;;;24.02;9.08;;;;;;;2.85;81.67;99784.95;4306868;82;21289;-88
2021/04/09 06:35:56;;;;;;;17.48;7.72;;;;;;;3.59;81.26;99776.66;4304202;81;27526;-87
2021/04/09 06:41:57;;;;;;;14.47;7.75;;;;;;;4.03;80.15;99777.10;4212400;83;21164;-87
2021/04/09 06:47:59;;;;;;;15.83;8.13;;;;;;;4.27;78.90;99776.16;4213401;83;21160;-87
2021/04/09 06:54:04;;;;;;;13.43;5.83;;;;;;;4.50;78.75;99771.67;4222063;83;21728;-87
2021/04/09 07:00:13;;;;;;;12.78;6.03;;;;;;;4.64;77.95;99764.75;4226301;83;21168;-88
2021/04/09 07:06:14;;;;;;;12.63;6.58;;;;;;;4.82;72.38;99764.45;4229636;83;21154;-87
2021/04/09 07:12:29;;;;;;;10.20;6.00;;;;;;;5.08;75.22;99763.10;4234038;84;21176;-90
2021/04/09 07:18:55;;;;;;;10.00;5.37;;;;;;;5.38;73.45;99760.77;4237648;84;21157;-90
2021/04/09 07:25:27;;;;;;;9.65;4.60;;;;;;;5.82;72.54;99758.20;4242429;84;21168;-91
2021/04/09 07:31:28;;;;;;;10.68;5.17;;;;;;;6.03;64.56;99757.15;4234206;84;21196;-90
2021/04/09 07:37:34;;;;;;;9.55;4.80;;;;;;;5.92;62.85;99739.61;4235278;84;21183;-92
2021/04/09 07:43:40;;;;;;;9.63;4.35;;;;;;;5.95;60.03;99733.52;4236965;84;21180;-90
2021/04/09 07:49:43;;;;;;;9.70;5.33;;;;;;;6.54;65.35;99743.04;4220323;84;21208;-89
2021/04/09 07:56:00;;;;;;;11.10;5.50;;;;;;;6.87;62.46;99735.77;4132854;86;21215;-90
2021/04/09 08:02:28;;;;;;;9.85;5.25;;;;;;;7.55;63.87;99728.30;4088244;87;21196;-90
2021/04/09 08:08:31;;;;;;;7.10;4.10;;;;;;;8.00;62.91;99720.89;4150813;85;21192;-91
2021/04/09 08:14:33;;;;;;;8.50;4.20;;;;;;;8.46;61.68;99719.63;4127833;86;21164;-94
2021/04/09 08:20:42;;;;;;;6.53;3.33;;;;;;;8.42;54.25;99711.92;4059695;87;21476;-91
2021/04/09 08:26:53;;;;;;;7.30;3.02;;;;;;;8.87;55.92;99704.30;4085776;87;21177;-91
2021/04/09 08:32:59;;;;;;;4.90;2.77;;;;;;;9.10;56.39;99698.52;4055707;87;21629;-89
2021/04/09 08:39:09;;;;;;;6.05;3.25;;;;;;;9.62;51.80;99703.83;4081090;87;21549;-93
2021/04/09 08:45:19;;;;;;;7.08;3.30;;;;;;;9.68;45.17;99701.85;4082367;87;21182;-91
2021/04/09 08:51:25;;;;;;;6.80;2.37;;;;;;;10.06;53.37;99687.56;4076366;86;21205;-92
2021/04/09 08:57:39;;;;;;;5.62;2.98;;;;;;;9.92;48.00;99676.28;4095318;87;21463;-89
2021/04/09 09:03:46;;;;;;;4.90;3.10;;;;;;;10.37;51.61;99676.59;4096595;86;21198;-93
2021/04/09 09:09:50;;;;;;;7.15;3.00;;;;;;;11.34;52.55;99661.98;4095704;87;21134;-95
2021/04/09 09:16:04;;;;;;;6.67;2.70;;;;;;;12.26;51.49;99650.63;4051067;87;21173;-93
2021/04/09 09:22:21;;;;;;;8.60;2.98;;;;;;;12.60;48.61;99638.55;4072037;87;21165;-91
2021/04/09 09:28:38;;;;;;;9.20;2.93;;;;;;;12.72;45.68;99633.41;4094570;87;21167;-91
2021/04/09 09:35:02;;;;;;;6.83;2.77;;;;;;;12.56;44.68;99633.00;4095120;87;21265;-92
2021/04/09 09:41:08;;;;;;;3.33;2.30;;;;;;;13.00;41.25;99622.76;4006546;82;2826248;-90
2021/04/09 09:47:20;;;;;;;5.85;2.37;;;;;;;14.12;43.84;99602.59;4146854;86;21325;-92
2021/04/09 09:53:26;;;;;;;5.75;2.25;;;;;;;14.84;40.64;99590.75;4142381;85;21167;-92
2021/04/09 09:59:28;;;;;;;3.85;1.95;;;;;;;14.60;40.87;99585.34;4165041;86;21121;-92
2021/04/09 10:05:45;;;;;;;3.05;1.72;;;;;;;15.76;33.72;99582.05;4138031;86;21167;-92
2021/04/09 10:11:57;;;;;;;3.70;1.65;;;;;;;15.87;38.45;99571.79;4138700;86;21181;-91
2021/04/09 10:18:16;;;;;;;2.83;1.90;;;;;;;16.73;38.35;99552.63;4163987;86;21097;-93
2021/04/09 10:24:21;;;;;;;2.75;1.82;;;;;;;17.03;36.75;99544.57;4161416;86;21602;-92
2021/04/09 10:30:31;;;;;;;3.15;1.62;;;;;;;16.19;34.30;99529.14;4125624;86;21212;-91
2021/04/09 10:36:33;;;;;;;2.90;1.60;;;;;;;16.51;36.60;99531.80;4076493;86;21180;-92
2021/04/09 10:42:42;;;;;;;3.83;1.65;;;;;;;16.86;28.65;99516.43;4065769;88;21123;-92
2021/04/09 10:48:49;;;;;;;3.62;1.62;;;;;;;16.64;35.11;99510.82;4064608;88;21194;-94
2021/04/09 10:55:09;;;;;;;;;;;;;;;16.00;31.54;99503.94;4081483;87;21172;-92
2021/04/09 11:01:39;;;;;;;4.62;1.85;;;;;;;17.12;33.01;99488.19;4042416;88;20239;-91
2021/04/09 11:07:51;;;;;;;4.53;1.67;;;;;;;18.04;33.43;99496.49;4064884;87;21221;-93
2021/04/09 11:14:04;;;;;;;2.33;1.42;;;;;;;17.48;30.59;99494.28;4075734;87;21156;-94
2021/04/09 11:20:26;;;;;;;2.47;1.50;;;;;;;17.53;32.31;99480.77;4062188;88;21194;-93
2021/04/09 11:37:05;;;;;;;2.83;1.20;;;;;;;18.31;30.94;99464.88;4600010;77;23291;-91
2021/04/09 11:43:13;;;;;;;3.15;1.60;;;;;;;16.76;27.43;99460.59;4624194;77;21581;-95
2021/04/09 11:49:16;;;;;;;2.35;1.40;;;;;;;16.52;28.51;99458.78;4584198;78;21173;-92
2021/04/09 11:55:24;;;;;;;3.10;1.40;;;;;;;17.07;29.87;99457.61;4586411;78;21106;-92
2021/04/09 12:01:28;;;;;;;3.80;1.60;;;;;;;16.58;28.96;99442.75;4510658;78;21256;-93
2021/04/09 12:07:30;;;;;;;3.85;1.35;;;;;;;16.41;30.17;99442.20;4548077;78;21083;-91
2021/04/09 12:13:33;;;;;;;3.27;1.67;;;;;;;16.07;29.69;99452.84;4547518;78;21146;-95
2021/04/09 12:19:36;;;;;;;3.25;1.65;;;;;;;15.95;29.85;99433.34;4525596;78;21556;-92
2021/04/09 12:25:39;;;;;;;2.98;1.47;;;;;;;15.53;29.18;99418.28;4544884;78;21882;-93
2021/04/09 12:31:43;;;;;;;3.65;1.65;;;;;;;15.23;29.18;99409.62;4548901;78;21149;-92
2021/04/09 12:38:05;;;;;;;3.02;1.47;;;;;;;14.57;29.93;99400.16;4559256;78;21849;-92
2021/04/09 12:44:09;;;;;;;3.55;1.70;;;;;;;14.39;30.32;99399.93;4558225;78;21146;-91
2021/04/09 12:50:11;;;;;;;3.12;1.65;;;;;;;14.48;30.99;99387.36;4558534;78;21125;-90
2021/04/09 12:56:16;;;;;;;5.87;2.02;;;;;;;14.63;31.11;99381.26;4558695;78;21134;-91
2021/04/09 13:02:19;;;;;;;3.60;1.65;;;;;;;14.50;29.72;99375.95;4490118;78;21150;-91
2021/04/09 13:08:21;;;;;;;4.05;1.95;;;;;;;14.48;30.97;99367.28;4514587;78;21126;-90
2021/04/09 13:14:23;;;;;;;6.03;2.08;;;;;;;14.81;30.10;99363.58;4512691;79;21148;-94
2021/04/09 13:20:26;;;;;;;3.08;1.72;;;;;;;14.30;29.86;99357.61;4501232;79;21487;-92
2021/04/09 13:26:31;;;;;;;3.50;2.10;;;;;;;13.89;30.16;99352.95;4524541;78;21062;-92
2021/04/09 13:32:33;;;;;;;3.00;1.67;;;;;;;13.61;30.84;99339.66;4558267;78;21146;-90
2021/04/09 13:38:41;;;;;;;3.30;1.35;;;;;;;13.44;31.07;99330.73;4542682;78;21126;-95
2021/04/09 13:45:03;;;;;;;2.85;1.30;;;;;;;13.88;29.42;99323.06;4631084;76;23048;-95
2021/04/09 13:51:05;;;;;;;3.72;1.57;;;;;;;13.38;28.38;99315.21;4521339;79;21121;-94
2021/04/09 13:57:09;;;;;;;2.98;1.65;;;;;;;13.19;30.80;99312.75;4493406;79;22014;-91
2021/04/09 14:03:14;;;;;;;4.03;1.80;;;;;;;13.69;30.89;99301.38;4518819;79;21209;-90
2021/04/09 14:09:29;;;;;;;2.98;1.70;;;;;;;13.62;31.10;99296.66;4519802;79;21145;-92
2021/04/09 14:15:42;;;;;;;4.83;2.08;;;;;;;14.03;31.30;99288.30;4515991;79;21855;-90
2021/04/09 14:21:59;;;;;;;5.08;2.47;;;;;;;14.35;31.34;99280.12;4595260;77;22921;-90
2021/04/09 14:28:01;;;;;;;4.55;2.90;;;;;;;14.39;31.01;99278.75;4554810;78;21144;-91
2021/04/09 14:34:03;;;;;;;4.17;2.30;;;;;;;13.92;28.88;99266.09;4383889;81;21149;-92
2021/04/09 14:40:18;;;;;;;4.10;2.20;;;;;;;13.28;28.97;99287.67;4464645;80;21268;-92
2021/04/09 14:46:26;;;;;;;5.03;2.37;;;;;;;12.95;31.72;99278.99;4464219;80;21185;-91
2021/04/09 14:52:34;;;;;;;5.40;1.80;;;;;;;12.96;32.01;99270.97;4464603;80;21295;-92
2021/04/09 14:58:38;;;;;;;5.42;2.55;;;;;;;13.12;31.39;99269.32;4434807;80;21177;-90
2021/04/09 15:04:52;;;;;;;5.60;2.80;;;;;;;12.97;31.16;99261.55;4465752;80;21280;-91
2021/04/09 15:10:50;;;;;;;3.87;2.00;;;;;;;12.73;32.81;99256.70;4462539;80;21315;-91
2021/04/09 15:16:54;;;;;;;9.15;2.47;;;;;;;12.54;33.01;99238.50;4092288;80;201694;-89
2021/04/09 15:22:58;;;;;;;4.30;2.05;;;;;;;12.65;32.80;99238.59;4047140;88;21505;-90
2021/04/09 15:28:59;;;;;;;5.30;2.52;;;;;;;12.73;33.31;99229.23;4063561;87;21209;-92
2021/04/09 15:35:01;;;;;;;6.37;2.10;;;;;;;12.89;32.70;99235.20;4060152;87;21182;-91
2021/04/09 15:41:05;;;;;;;5.53;2.40;;;;;;;12.65;33.49;99226.24;4061564;87;21226;-91
2021/04/09 15:47:07;;;;;;;8.48;2.22;;;;;;;12.45;33.78;99219.41;4061016;88;21187;-90
2021/04/09 15:53:09;;;;;;;6.72;2.60;;;;;;;12.18;34.84;99220.19;4062256;87;21185;-91
2021/04/09 15:59:11;;;;;;;6.53;3.08;;;;;;;11.98;35.00;99221.59;4060571;87;21206;-93
2021/04/09 16:05:16;;;;;;;3.92;2.20;;;;;;;11.69;34.26;99221.13;4045646;88;21582;-90
2021/04/09 16:11:19;;;;;;;5.65;2.52;;;;;;;11.41;35.07;99213.14;4060152;88;21206;-93
2021/04/09 16:17:20;;;;;;;5.70;2.80;;;;;;;11.16;34.73;99212.06;4038948;87;21225;-93
2021/04/09 16:23:22;;;;;;;4.45;2.40;;;;;;;10.89;36.26;99203.91;4057614;87;21166;-93
2021/04/09 16:29:23;;;;;;;9.23;4.17;;;;;;;10.66;36.78;99202.42;4104953;87;21215;-93
2021/04/09 16:35:26;;;;;;;10.40;4.47;;;;;;;10.43;36.94;99192.13;4105013;86;21198;-94
2021/04/09 16:41:28;;;;;;;12.07;5.62;;;;;;;10.22;36.94;99193.16;4125661;85;21157;-92
2021/04/09 16:47:29;;;;;;;15.53;6.28;;;;;;;10.00;37.08;99190.64;4172945;84;21190;-93
2021/04/09 16:53:31;;;;;;;20.48;8.28;;;;;;;9.85;37.04;99188.04;4214224;84;21787;-95
2021/04/09 16:59:34;;;;;;;19.92;7.60;;;;;;;9.70;37.23;99179.36;4159925;84;21243;-93
2021/04/09 17:05:36;;;;;;;16.65;8.38;;;;;;;9.62;37.35;99177.66;4149768;85;69193;-94
2021/04/09 17:29:30;;;;;;;24.50;9.80;;;;;;;9.46;38.10;99179.13;4461727;79;27248;-91
2021/04/09 17:35:32;;;;;;;28.00;12.05;;;;;;;9.33;38.41;99175.77;4427610;79;21155;-93
2021/04/09 17:41:33;;;;;;;29.77;13.18;;;;;;;9.25;38.78;99173.29;4258968;83;21183;-93
2021/04/09 17:47:36;;;;;;;25.65;11.53;;;;;;;9.14;38.76;99179.13;4263278;83;21840;-91
2021/04/09 17:53:39;;;;;;;62.98;27.25;;;;;;;9.02;39.11;99186.11;4290807;82;21633;-93
2021/04/09 17:59:41;;;;;;;57.73;27.02;;;;;;;8.88;39.95;99184.45;4187433;82;94794;-93
2021/04/09 18:18:56;;;;;;;28.23;12.78;;;;;;;8.15;40.09;99197.98;4386014;80;21152;-93
2021/04/09 18:24:58;;;;;;;20.77;11.50;;;;;;;7.89;40.49;99195.02;4404858;79;21145;-93
2021/04/09 18:31:02;;;;;;;62.03;29.05;;;;;;;7.65;40.69;99200.63;4413348;80;21187;-94
2021/04/09 18:37:03;;;;;;;53.10;26.68;;;;;;;7.69;40.44;99198.21;4426418;79;21212;-92
2021/04/09 18:43:05;;;;;;;85.42;41.90;;;;;;;7.82;40.29;99192.11;4412391;79;21546;-93
2021/04/09 18:49:39;;;;;;;93.58;42.38;;;;;;;7.88;40.40;99193.42;4331042;81;21164;-92
2021/04/09 18:55:41;;;;;;;72.95;30.35;;;;;;;7.81;40.75;99202.20;4245722;83;21181;-91
2021/04/09 19:01:42;;;;;;;91.15;36.33;;;;;;;7.65;41.21;99189.17;4308699;81;21683;-92
2021/04/09 19:07:45;;;;;;;88.17;34.55;;;;;;;7.58;41.45;99182.75;4314404;81;21217;-92
2021/04/09 19:13:47;;;;;;;82.90;36.35;;;;;;;7.51;41.86;99179.83;4354059;81;22186;-93
2021/04/09 19:19:53;;;;;;;91.55;40.55;;;;;;;7.36;42.18;99180.61;4345300;81;21718;-93
2021/04/09 19:25:56;;;;;;;82.17;35.87;;;;;;;7.16;42.93;99182.40;4320968;81;21170;-93
2021/04/09 19:31:57;;;;;;;65.08;29.95;;;;;;;6.68;43.75;99169.55;4362118;80;21452;-93
2021/04/09 19:38:01;;;;;;;53.75;23.80;;;;;;;6.25;44.21;99170.20;4364580;81;21404;-93
2021/04/09 19:44:04;;;;;;;39.13;17.60;;;;;;;5.86;44.49;99163.55;4339200;81;21177;-92
2021/04/09 19:50:07;;;;;;;40.23;17.27;;;;;;;5.58;45.22;99169.95;4306080;81;21164;-91
2021/04/09 19:56:10;;;;;;;44.75;18.52;;;;;;;5.38;45.50;99154.53;4363651;80;21174;-92
2021/04/09 20:02:12;;;;;;;53.70;24.82;;;;;;;5.11;46.24;99160.56;4347655;81;21142;-91
2021/04/09 20:08:14;;;;;;;69.03;31.50;;;;;;;4.89;46.44;99162.32;4323156;81;21223;-92
2021/04/09 20:14:16;;;;;;;71.57;29.85;;;;;;;4.73;46.78;99158.84;4318557;82;21450;-91
2021/04/09 20:20:18;;;;;;;62.35;29.05;;;;;;;4.50;47.26;99152.19;4308740;82;21171;-92
2021/04/09 20:26:19;;;;;;;55.98;26.62;;;;;;;4.30;47.66;99148.12;4310326;82;21733;-92
2021/04/09 20:32:21;;;;;;;61.00;25.95;;;;;;;4.23;49.15;99143.77;4302203;82;21673;-92
2021/04/09 20:38:22;;;;;;;53.68;25.48;;;;;;;4.05;49.33;99153.14;4300636;82;21131;-91
2021/04/09 20:44:24;;;;;;;52.83;24.35;;;;;;;3.94;50.09;99146.52;4294612;82;21149;-91
2021/04/09 20:50:25;;;;;;;46.63;21.57;;;;;;;3.74;50.14;99148.63;4300974;82;21116;-90
2021/04/09 20:56:27;;;;;;;47.35;21.23;;;;;;;3.47;50.32;99145.80;4246567;82;21638;-93
2021/04/09 21:02:29;;;;;;;48.42;20.02;;;;;;;3.29;50.61;99140.77;4314523;82;21156;-91
2021/04/09 21:08:30;;;;;;;45.17;18.87;;;;;;;3.20;51.29;99146.20;4302556;82;21315;-92
2021/04/09 21:14:32;;;;;;;43.35;18.42;;;;;;;3.14;51.44;99141.53;4313501;82;21168;-92
2021/04/09 21:20:50;;;;;;;41.73;17.32;;;;;;;3.02;51.74;99137.33;4300821;82;21146;-91
2021/04/09 21:26:51;;;;;;;43.58;18.20;;;;;;;2.93;53.29;99139.81;4312175;82;21287;-92
2021/04/09 21:33:16;;;;;;;46.10;20.12;;;;;;;3.03;53.94;99135.42;4303571;82;21141;-91
2021/04/09 21:39:17;;;;;;;101.58;41.50;;;;;;;3.05;53.70;99133.20;4303821;82;21650;-93
2021/04/09 21:45:19;;;;;;;61.68;26.93;;;;;;;2.88;53.04;99135.36;4304254;81;21961;-92
2021/04/09 21:51:21;;;;;;;46.48;20.25;;;;;;;2.72;53.47;99127.55;4237721;83;21625;-92
2021/04/09 21:57:22;;;;;;;49.67;21.85;;;;;;;2.59;54.42;99131.20;4223754;83;21158;-91
2021/04/09 22:03:24;;;;;;;46.30;20.23;;;;;;;2.44;54.35;99129.54;4243728;83;21120;-91
2021/04/09 22:09:26;;;;;;;38.60;16.67;;;;;;;2.33;54.48;99127.72;4251824;83;21301;-92
2021/04/09 22:15:28;;;;;;;44.15;16.12;;;;;;;2.27;55.24;99124.91;4236194;84;21197;-91
2021/04/09 22:21:30;;;;;;;37.10;15.98;;;;;;;2.20;54.96;99114.34;4237880;84;21676;-92
2021/04/09 22:27:31;;;;;;;28.27;13.13;;;;;;;2.09;55.24;99115.22;4232776;84;21141;-92
2021/04/09 22:33:38;;;;;;;30.45;12.45;;;;;;;1.92;55.89;99108.45;4256545;82;21134;-92
2021/04/09 22:39:40;;;;;;;34.60;13.78;;;;;;;1.82;56.76;99099.88;4222222;83;21594;-90
2021/04/09 22:45:45;;;;;;;27.80;13.08;;;;;;;1.84;57.51;99101.13;4250911;83;21255;-90
2021/04/09 22:51:46;;;;;;;24.35;10.80;;;;;;;1.84;57.51;99101.13;4240892;83;21630;-92
2021/04/09 22:58:34;;;;;;;27.85;13.08;;;;;;;1.76;57.56;99093.81;4241046;83;21442;-92
2021/04/09 23:04:36;;;;;;;28.70;12.33;;;;;;;1.78;57.92;99082.16;4248191;83;21640;-91
2021/04/09 23:10:38;;;;;;;34.20;16.32;;;;;;;1.78;57.92;99082.16;4282089;82;21446;-91
2021/04/09 23:16:39;;;;;;;32.60;15.88;;;;;;;1.88;58.51;99079.71;4321916;82;21188;-92
2021/04/09 23:22:42;;;;;;;36.70;16.35;;;;;;;1.88;58.51;99079.71;4331858;82;21566;-91
2021/04/09 23:28:49;;;;;;;42.83;19.10;;;;;;;1.76;58.99;99055.22;4318843;82;21154;-91
2021/04/09 23:34:51;;;;;;;45.83;19.20;;;;;;;1.80;58.66;99069.69;4328286;82;21137;-91
2021/04/09 23:40:52;;;;;;;42.30;17.37;;;;;;;1.78;58.74;99070.01;4329122;82;21156;-93
2021/04/09 23:46:54;;;;;;;35.75;16.97;;;;;;;1.81;59.34;99059.12;4325794;81;21179;-90
2021/04/09 23:52:56;;;;;;;39.38;19.32;;;;;;;1.80;59.10;99044.05;4327251;82;21600;-92
2021/04/09 23:58:57;;;;;;;37.50;17.60;;;;;;;1.96;59.22;99057.33;4325554;82;21200;-92
